Time;durP1;ratioP1;P1;durP2;ratioP2;P2;SDS_P1;SDS_P2;PMS_P1;PMS_P2;Temp;Humidity;BMP_temperature;BMP_pressure;BME280_temperature;BME280_humidity;BME280_pressure;Samples;Min_cycle;Max_cycle;Signal;HPM_P1;HPM_P2
2022/11/08 00:01:49;;;;;;;1.40;0.90;;;4.90;99.90;;;;;;5092503;28;20429;-50
2022/11/08 00:04:17;;;;;;;1.20;0.80;;;4.80;99.90;;;;;;5091699;28;20497;-52
2022/11/08 00:15:00;;;;;;;1.67;0.90;;;5.00;99.90;;;;;;5092818;28;20932;-49
2022/11/08 00:17:29;;;;;;;1.30;0.77;;;5.00;99.90;;;;;;5091514;28;20524;-50
2022/11/08 00:19:56;;;;;;;1.50;0.70;;;5.10;99.90;;;;;;5091686;28;20532;-49
2022/11/08 00:22:23;;;;;;;2.67;0.80;;;5.20;99.90;;;;;;5091889;28;20529;-52
2022/11/08 00:24:51;;;;;;;1.10;0.90;;;5.10;99.90;;;;;;5091129;28;20472;-50
2022/11/08 00:27:20;;;;;;;1.00;0.70;;;5.00;99.90;;;;;;5091634;28;20477;-51
2022/11/08 00:29:47;;;;;;;1.10;0.83;;;4.90;99.90;;;;;;5090954;28;20880;-50
2022/11/08 00:32:18;;;;;;;3.53;1.07;;;4.60;99.90;;;;;;5091418;28;20480;-50
2022/11/08 00:34:45;;;;;;;2.17;0.70;;;4.80;99.90;;;;;;5091342;28;20457;-50
2022/11/08 00:37:12;;;;;;;1.17;0.87;;;4.60;99.90;;;;;;5091374;28;20447;-50
2022/11/08 00:39:40;;;;;;;1.20;0.70;;;4.90;99.90;;;;;;5091382;28;20442;-50
2022/11/08 00:42:07;;;;;;;1.20;0.67;;;5.00;99.90;;;;;;5091110;28;20446;-51
2022/11/08 00:44:34;;;;;;;0.90;0.60;;;5.20;99.90;;;;;;5090995;28;20508;-50
2022/11/08 00:47:01;;;;;;;1.20;0.90;;;5.30;99.90;;;;;;5091032;28;20912;-50
2022/11/08 00:49:29;;;;;;;1.67;1.07;;;5.40;99.90;;;;;;5091346;28;20863;-49
2022/11/08 00:51:56;;;;;;;1.43;0.50;;;5.40;99.90;;;;;;5091183;28;20529;-50
2022/11/08 00:54:23;;;;;;;1.40;0.73;;;4.80;99.90;;;;;;5091097;28;20464;-49
2022/11/08 00:56:50;;;;;;;1.67;0.90;;;4.60;99.90;;;;;;5090921;28;20474;-50
2022/11/08 00:59:18;;;;;;;1.43;1.27;;;4.90;99.90;;;;;;5091212;28;20525;-49
2022/11/08 01:01:46;;;;;;;4.30;1.27;;;4.90;99.90;;;;;;5091383;28;20470;-49
2022/11/08 01:04:15;;;;;;;2.70;1.00;;;4.90;99.90;;;;;;5090888;28;20524;-50
2022/11/08 01:06:43;;;;;;;1.20;0.80;;;5.00;99.90;;;;;;5090987;28;20562;-51
2022/11/08 01:09:10;;;;;;;5.67;0.80;;;5.10;99.90;;;;;;5090921;28;20479;-50
2022/11/08 01:11:38;;;;;;;1.30;1.10;;;5.00;99.90;;;;;;5091459;28;20557;-50
2022/11/08 01:14:05;;;;;;;1.63;0.77;;;4.60;99.90;;;;;;5090689;28;20961;-50
2022/11/08 01:16:34;;;;;;;1.20;0.73;;;4.40;99.90;;;;;;5091128;28;20882;-49
2022/11/08 01:19:01;;;;;;;1.17;0.83;;;4.40;99.90;;;;;;5090846;28;20487;-50
2022/11/08 01:21:29;;;;;;;1.17;0.73;;;4.20;99.90;;;;;;5090983;28;20528;-50
2022/11/08 01:23:57;;;;;;;3.40;1.10;;;4.20;99.90;;;;;;5090346;28;20889;-50
2022/11/08 01:26:26;;;;;;;1.10;0.67;;;4.20;99.90;;;;;;5090802;28;20564;-50
2022/11/08 01:28:54;;;;;;;1.33;0.80;;;4.30;99.90;;;;;;5090995;28;20531;-51
2022/11/08 01:31:23;;;;;;;1.57;1.13;;;4.40;99.90;;;;;;5090724;28;20510;-52
2022/11/08 01:33:51;;;;;;;2.60;1.57;;;4.70;99.90;;;;;;5090479;28;21012;-50
2022/11/08 01:36:20;;;;;;;3.20;1.90;;;4.50;99.90;;;;;;5090962;28;20520;-49
2022/11/08 01:38:47;;;;;;;3.57;1.10;;;4.40;99.90;;;;;;5094598;28;20452;-50
2022/11/08 01:41:18;;;;;;;1.20;1.00;;;3.80;99.90;;;;;;5094509;28;20535;-50
2022/11/08 01:43:46;;;;;;;2.00;1.13;;;4.00;99.90;;;;;;5094405;28;20476;-49
2022/11/08 01:46:41;;;;;;;1.37;0.87;;;4.30;99.90;;;;;;5094377;28;20511;-51
2022/11/08 01:49:29;;;;;;;1.53;1.10;;;3.90;99.90;;;;;;5095015;28;20690;-50
2022/11/08 01:52:05;;;;;;;1.10;0.90;;;3.90;99.90;;;;;;5094348;28;20978;-50
2022/11/08 01:54:38;;;;;;;2.40;1.10;;;3.80;99.90;;;;;;5094210;28;20487;-50
2022/11/08 01:57:10;;;;;;;1.90;1.40;;;4.00;99.90;;;;;;5094186;28;20480;-51
2022/11/08 01:59:41;;;;;;;1.30;1.10;;;4.40;99.90;;;;;;5094063;28;20805;-49
2022/11/08 02:02:10;;;;;;;2.50;0.80;;;4.40;99.90;;;;;;5094518;28;20485;-49
2022/11/08 02:04:39;;;;;;;1.50;1.00;;;4.50;99.90;;;;;;5094097;28;20544;-50
2022/11/08 02:07:07;;;;;;;1.90;1.00;;;4.70;99.90;;;;;;5094036;28;20475;-51
2022/11/08 02:09:37;;;;;;;2.00;1.30;;;4.70;99.90;;;;;;5094390;28;20538;-49
2022/11/08 02:12:06;;;;;;;2.30;1.37;;;4.50;99.90;;;;;;5094078;28;20529;-50
2022/11/08 02:14:33;;;;;;;1.60;1.07;;;4.70;99.90;;;;;;5093471;28;20473;-49
2022/11/08 02:17:00;;;;;;;1.63;1.13;;;4.70;99.90;;;;;;5093957;28;20519;-49
2022/11/08 02:19:36;;;;;;;2.07;1.20;;;4.80;99.90;;;;;;5093872;28;20447;-51
2022/11/08 02:22:09;;;;;;;2.07;1.90;;;4.70;99.90;;;;;;5093919;28;20539;-50
2022/11/08 02:24:39;;;;;;;1.33;0.90;;;4.80;99.90;;;;;;5093626;28;20493;-49
2022/11/08 02:27:05;;;;;;;1.40;0.80;;;4.80;99.90;;;;;;5093552;28;20478;-50
2022/11/08 02:29:34;;;;;;;2.60;1.30;;;4.80;99.90;;;;;;5093566;28;20487;-49
2022/11/08 02:32:03;;;;;;;1.43;0.83;;;4.80;99.90;;;;;;5093736;28;20441;-50
2022/11/08 02:34:33;;;;;;;1.10;0.90;;;4.90;99.90;;;;;;5093476;28;20500;-49
2022/11/08 02:37:01;;;;;;;1.10;0.80;;;4.90;99.90;;;;;;5093415;28;20937;-50
2022/11/08 02:39:28;;;;;;;1.40;0.97;;;4.80;99.90;;;;;;5093416;28;20472;-49
2022/11/08 02:41:57;;;;;;;1.30;0.87;;;4.70;99.90;;;;;;5093521;28;20441;-50
2022/11/08 02:44:24;;;;;;;1.83;1.10;;;4.80;99.90;;;;;;5092947;28;20479;-49
2022/11/08 02:46:50;;;;;;;1.07;0.80;;;4.80;99.90;;;;;;5093568;28;20571;-49
2022/11/08 02:49:17;;;;;;;1.47;0.97;;;4.80;99.90;;;;;;5093285;28;20445;-50
2022/11/08 02:51:44;;;;;;;1.40;0.90;;;4.50;99.90;;;;;;5093391;28;20471;-51
2022/11/08 02:54:11;;;;;;;1.87;0.90;;;4.20;99.90;;;;;;5092796;28;20543;-49
2022/11/08 02:56:38;;;;;;;2.13;0.90;;;4.10;99.90;;;;;;5093136;28;21019;-49
2022/11/08 02:59:06;;;;;;;1.00;0.80;;;4.40;99.90;;;;;;5093195;28;20502;-50
2022/11/08 03:01:33;;;;;;;1.47;1.07;;;4.40;99.90;;;;;;5093203;28;20883;-50
2022/11/08 03:04:00;;;;;;;1.80;1.20;;;4.50;99.90;;;;;;5092812;28;20440;-49
2022/11/08 03:06:27;;;;;;;1.20;0.90;;;4.60;99.90;;;;;;5093043;28;20478;-49
2022/11/08 03:08:54;;;;;;;1.73;1.20;;;4.50;99.90;;;;;;5093013;28;20563;-50
2022/11/08 03:11:21;;;;;;;1.40;0.70;;;4.50;99.90;;;;;;5092849;28;20472;-50
2022/11/08 03:13:48;;;;;;;2.07;0.97;;;4.40;99.90;;;;;;5092829;28;20532;-50
2022/11/08 03:16:16;;;;;;;1.30;0.90;;;4.30;99.90;;;;;;5092682;28;20481;-49
2022/11/08 03:18:43;;;;;;;1.40;0.80;;;4.50;99.90;;;;;;5092753;28;20481;-49
2022/11/08 03:21:10;;;;;;;1.50;1.03;;;3.90;99.90;;;;;;5092723;28;20447;-49
2022/11/08 03:23:37;;;;;;;1.53;0.83;;;4.20;99.90;;;;;;5092340;28;20528;-50
2022/11/08 03:26:05;;;;;;;2.07;0.90;;;3.70;99.90;;;;;;5092336;28;20474;-50
2022/11/08 03:28:32;;;;;;;1.10;0.80;;;3.70;99.90;;;;;;5092480;28;21043;-49
2022/11/08 03:30:59;;;;;;;1.53;0.80;;;3.80;99.90;;;;;;5092560;28;20515;-51
2022/11/08 03:33:27;;;;;;;1.10;0.90;;;4.10;99.90;;;;;;5092200;28;20467;-50
2022/11/08 03:35:54;;;;;;;1.90;1.03;;;4.30;99.90;;;;;;5092197;28;21044;-51
2022/11/08 03:38:21;;;;;;;1.60;0.87;;;4.20;99.90;;;;;;5092679;28;20470;-49
2022/11/08 03:40:48;;;;;;;1.50;0.97;;;4.10;99.90;;;;;;5092337;28;20453;-50
2022/11/08 03:43:15;;;;;;;1.40;0.73;;;4.00;99.90;;;;;;5092222;28;20538;-51
2022/11/08 03:45:42;;;;;;;2.00;1.27;;;4.00;99.90;;;;;;5091904;28;20468;-50
2022/11/08 03:48:09;;;;;;;2.27;1.40;;;4.00;99.90;;;;;;5092106;28;20557;-49
2022/11/08 03:50:37;;;;;;;1.20;1.07;;;4.20;99.90;;;;;;5092114;28;20449;-51
2022/11/08 03:53:04;;;;;;;3.53;1.23;;;4.40;99.90;;;;;;5091945;28;20982;-50
2022/11/08 03:55:31;;;;;;;6.13;2.70;;;4.50;99.90;;;;;;5092162;28;20531;-49
2022/11/08 03:57:58;;;;;;;2.73;1.47;;;4.50;99.90;;;;;;5092024;28;20540;-49
2022/11/08 04:00:27;;;;;;;1.33;1.07;;;4.40;99.90;;;;;;5091472;28;20521;-50
2022/11/08 04:02:55;;;;;;;1.67;0.93;;;4.40;99.90;;;;;;5091670;28;20477;-49
2022/11/08 04:05:22;;;;;;;1.57;0.90;;;4.50;99.90;;;;;;5091766;28;20472;-50
2022/11/08 04:07:50;;;;;;;1.10;0.60;;;4.50;99.90;;;;;;5091849;28;20564;-50
2022/11/08 04:10:17;;;;;;;1.10;0.67;;;4.60;99.90;;;;;;5091876;28;20440;-49
2022/11/08 04:15:30;;;;;;;1.93;1.73;;;4.50;99.90;;;;;;5091565;28;20460;-50
2022/11/08 04:23:31;;;;;;;3.10;1.30;;;3.40;99.90;;;;;;5091618;28;20435;-50
2022/11/08 04:26:01;;;;;;;2.17;1.17;;;3.80;99.90;;;;;;5091430;28;20468;-49
2022/11/08 04:28:30;;;;;;;1.60;1.17;;;4.00;99.90;;;;;;5091502;28;20968;-49
2022/11/08 04:30:58;;;;;;;3.13;1.50;;;4.20;99.90;;;;;;5091289;28;20536;-49
2022/11/08 04:33:26;;;;;;;1.73;1.27;;;4.20;99.90;;;;;;5091564;28;20498;-50
2022/11/08 04:35:53;;;;;;;2.00;1.20;;;4.20;99.90;;;;;;5091138;28;20536;-51
2022/11/08 04:38:20;;;;;;;1.97;1.40;;;4.10;99.90;;;;;;5091641;28;20476;-50
2022/11/08 04:40:48;;;;;;;1.60;1.50;;;4.20;99.90;;;;;;5091720;28;20451;-51
2022/11/08 04:43:15;;;;;;;1.67;1.00;;;4.30;99.90;;;;;;5091023;28;20535;-51
2022/11/08 04:45:42;;;;;;;2.50;1.03;;;4.30;99.90;;;;;;5090912;28;20546;-51
2022/11/08 04:48:09;;;;;;;1.30;1.10;;;3.90;99.90;;;;;;5091037;28;20571;-50
2022/11/08 04:50:36;;;;;;;1.50;1.00;;;3.90;99.90;;;;;;5091088;28;20450;-51
2022/11/08 04:53:03;;;;;;;2.03;1.00;;;3.70;99.90;;;;;;5090739;28;20823;-49
2022/11/08 04:55:30;;;;;;;1.00;0.70;;;4.00;99.90;;;;;;5090860;28;20558;-49
2022/11/08 04:58:01;;;;;;;2.07;1.60;;;4.00;99.90;;;;;;5091364;28;20436;-49
2022/11/08 05:00:27;;;;;;;3.43;2.60;;;4.00;99.90;;;;;;5090869;28;20452;-48
2022/11/08 05:02:55;;;;;;;2.03;1.67;;;3.80;99.90;;;;;;5090820;28;20445;-52
2022/11/08 05:05:22;;;;;;;4.33;2.70;;;3.80;99.90;;;;;;5091214;28;20522;-49
2022/11/08 05:07:49;;;;;;;3.03;2.23;;;3.80;99.90;;;;;;5090798;28;20480;-49
2022/11/08 05:10:17;;;;;;;3.30;1.80;;;3.80;99.90;;;;;;5090885;28;20943;-49
2022/11/08 05:12:43;;;;;;;5.97;3.93;;;3.80;99.90;;;;;;5093568;28;20478;-50
2022/11/08 05:15:12;;;;;;;5.20;2.23;;;3.70;99.90;;;;;;5094696;28;20558;-50
2022/11/08 05:17:39;;;;;;;2.07;1.80;;;3.80;99.90;;;;;;5094905;28;20432;-49
2022/11/08 05:25:39;;;;;;;1.23;0.90;;;3.20;99.90;;;;;;5095547;28;20441;-50
2022/11/08 05:28:06;;;;;;;1.90;1.80;;;3.50;99.90;;;;;;5094903;28;20846;-50
2022/11/08 05:30:34;;;;;;;1.70;1.20;;;3.80;99.90;;;;;;5094799;28;20524;-50
2022/11/08 05:33:01;;;;;;;1.50;1.40;;;3.80;99.90;;;;;;5094859;28;20551;-50
2022/11/08 05:35:28;;;;;;;2.30;2.10;;;3.70;99.90;;;;;;5094594;28;20898;-49
2022/11/08 05:37:55;;;;;;;2.10;1.50;;;3.70;99.90;;;;;;5094425;28;20528;-50
2022/11/08 05:40:22;;;;;;;1.93;1.50;;;3.80;99.90;;;;;;5094671;28;20440;-51
2022/11/08 05:42:49;;;;;;;2.13;1.20;;;3.90;99.90;;;;;;5095110;28;20507;-49
2022/11/08 05:45:16;;;;;;;1.77;1.20;;;4.00;99.90;;;;;;5093648;28;20899;-49
2022/11/08 05:47:46;;;;;;;1.87;1.50;;;4.10;99.90;;;;;;5094467;28;20472;-49
2022/11/08 05:50:13;;;;;;;5.20;4.27;;;4.00;99.90;;;;;;5094659;28;20448;-49
2022/11/08 05:52:40;;;;;;;2.47;2.23;;;3.90;99.90;;;;;;5094371;28;20444;-50
2022/11/08 05:55:08;;;;;;;1.60;1.27;;;3.90;99.90;;;;;;5094187;28;20492;-49
2022/11/08 05:57:34;;;;;;;2.07;1.33;;;3.80;99.90;;;;;;5094654;28;20518;-50
2022/11/08 06:00:02;;;;;;;2.63;1.33;;;3.60;99.90;;;;;;5094449;28;20534;-49
2022/11/08 06:02:31;;;;;;;2.20;1.47;;;3.70;99.90;;;;;;5094403;28;20451;-51
2022/11/08 06:05:01;;;;;;;1.40;1.17;;;3.80;99.90;;;;;;5094069;28;20465;-52
2022/11/08 06:07:28;;;;;;;1.63;1.40;;;3.70;99.90;;;;;;5094302;28;20489;-50
2022/11/08 06:09:55;;;;;;;1.53;1.10;;;3.80;99.90;;;;;;5094210;28;20523;-52
2022/11/08 06:12:21;;;;;;;1.43;0.90;;;3.40;99.90;;;;;;5094117;28;20879;-51
2022/11/08 06:14:48;;;;;;;1.27;0.70;;;3.70;99.90;;;;;;5095179;28;20526;-50
2022/11/08 06:17:15;;;;;;;1.47;0.87;;;3.90;99.90;;;;;;5093990;28;20571;-51
2022/11/08 06:19:43;;;;;;;1.27;0.90;;;3.90;99.90;;;;;;5093917;28;20455;-50
2022/11/08 06:22:11;;;;;;;1.93;1.07;;;3.80;99.90;;;;;;5093927;28;20825;-49
2022/11/08 06:24:38;;;;;;;1.83;1.33;;;3.80;99.90;;;;;;5093325;28;21010;-50
2022/11/08 06:27:05;;;;;;;1.40;1.10;;;3.60;99.90;;;;;;5093724;28;21012;-50
2022/11/08 06:29:32;;;;;;;1.50;1.20;;;3.80;99.90;;;;;;5093387;28;20443;-50
2022/11/08 06:31:59;;;;;;;1.40;1.13;;;3.90;99.90;;;;;;5093746;28;20484;-51
2022/11/08 06:34:26;;;;;;;5.27;1.50;;;4.00;99.90;;;;;;5093301;28;21038;-49
2022/11/08 06:36:54;;;;;;;1.20;1.00;;;4.00;99.90;;;;;;5094048;28;20451;-50
2022/11/08 06:39:22;;;;;;;1.77;1.30;;;4.00;99.90;;;;;;5093805;28;20437;-50
2022/11/08 06:41:49;;;;;;;1.80;1.10;;;4.10;99.90;;;;;;5093709;28;20479;-50
2022/11/08 06:44:16;;;;;;;1.93;1.30;;;4.00;99.90;;;;;;5092973;28;20548;-50
2022/11/08 06:46:43;;;;;;;1.33;1.00;;;3.90;99.90;;;;;;5093701;28;20522;-52
2022/11/08 06:49:10;;;;;;;1.20;0.80;;;3.70;99.90;;;;;;5093432;28;20477;-50
2022/11/08 06:51:37;;;;;;;2.17;1.53;;;3.70;99.90;;;;;;5093569;28;20473;-50
2022/11/08 06:54:05;;;;;;;2.67;2.13;;;3.90;99.90;;;;;;5092789;28;20917;-51
2022/11/08 06:56:34;;;;;;;2.77;1.23;;;4.00;99.90;;;;;;5093237;28;20450;-49
2022/11/08 06:59:01;;;;;;;2.73;1.30;;;4.10;99.90;;;;;;5093120;28;20527;-49
2022/11/08 07:01:28;;;;;;;2.00;0.90;;;4.20;99.90;;;;;;5093224;28;20457;-52
2022/11/08 07:03:55;;;;;;;2.70;1.40;;;4.20;99.90;;;;;;5092607;28;20528;-50
2022/11/08 07:06:22;;;;;;;2.60;1.20;;;4.20;99.90;;;;;;5092952;28;20448;-50
2022/11/08 07:08:49;;;;;;;2.30;1.33;;;4.10;99.90;;;;;;5092723;28;20564;-50
2022/11/08 07:11:16;;;;;;;2.80;1.47;;;3.70;99.90;;;;;;5092915;28;20529;-50
2022/11/08 07:13:46;;;;;;;2.00;1.50;;;3.80;99.90;;;;;;5092611;28;21036;-50
2022/11/08 07:16:13;;;;;;;4.93;4.13;;;3.90;99.90;;;;;;5092523;28;20562;-54
2022/11/08 07:18:41;;;;;;;5.00;3.87;;;3.80;99.90;;;;;;5092866;28;20527;-49
2022/11/08 07:21:07;;;;;;;3.60;2.17;;;3.90;99.90;;;;;;5092829;28;20450;-50
2022/11/08 07:23:34;;;;;;;3.57;2.07;;;4.10;99.90;;;;;;5092949;28;20446;-50
2022/11/08 07:26:02;;;;;;;2.47;1.77;;;4.20;99.90;;;;;;5092563;28;20495;-50
2022/11/08 07:28:30;;;;;;;3.10;2.10;;;4.20;99.90;;;;;;5092756;28;20479;-50
2022/11/08 07:31:00;;;;;;;4.63;2.40;;;4.20;99.90;;;;;;5092259;28;20965;-50
2022/11/08 07:33:27;;;;;;;6.83;3.13;;;4.20;99.90;;;;;;5092084;28;20543;-50
2022/11/08 07:35:54;;;;;;;4.40;2.63;;;4.20;99.90;;;;;;5091426;28;20545;-52
2022/11/08 07:38:21;;;;;;;8.07;3.47;;;4.20;99.90;;;;;;5092761;28;20429;-50
2022/11/08 07:40:48;;;;;;;4.03;3.20;;;4.30;99.90;;;;;;5092465;28;20444;-52
2022/11/08 07:43:15;;;;;;;2.10;1.70;;;4.30;99.90;;;;;;5092077;28;20535;-50
2022/11/08 07:45:42;;;;;;;2.10;1.70;;;4.30;99.90;;;;;;5091900;28;20541;-49
2022/11/08 07:48:12;;;;;;;2.73;1.80;;;4.30;99.90;;;;;;5092389;28;20534;-50
2022/11/08 07:50:40;;;;;;;3.07;1.77;;;4.20;99.90;;;;;;5092408;28;20536;-51
2022/11/08 07:53:07;;;;;;;31.73;8.57;;;4.30;99.90;;;;;;5091929;28;20441;-50
2022/11/08 07:55:35;;;;;;;4.67;2.80;;;4.30;99.90;;;;;;5092618;28;20553;-50
2022/11/08 07:58:02;;;;;;;3.23;1.60;;;4.20;99.90;;;;;;5092040;28;20864;-50
2022/11/08 08:00:29;;;;;;;3.53;1.93;;;4.30;99.90;;;;;;5092078;28;21048;-49
2022/11/08 08:03:00;;;;;;;2.23;2.03;;;4.30;99.90;;;;;;5091443;28;20488;-49
2022/11/08 08:05:30;;;;;;;2.37;1.40;;;4.10;99.90;;;;;;5091586;28;20540;-50
2022/11/08 08:07:57;;;;;;;5.53;2.73;;;3.80;99.90;;;;;;5091738;28;21118;-49
2022/11/08 08:10:26;;;;;;;13.07;3.90;;;4.10;99.90;;;;;;5091681;28;21013;-49
2022/11/08 08:12:53;;;;;;;8.03;3.47;;;4.30;99.90;;;;;;5091550;28;20541;-48
2022/11/08 08:15:20;;;;;;;4.53;1.90;;;4.30;99.90;;;;;;5091395;28;20564;-49
2022/11/08 08:17:47;;;;;;;2.10;1.70;;;4.30;99.90;;;;;;5091623;28;20538;-50
2022/11/08 08:20:14;;;;;;;2.33;1.60;;;4.20;99.90;;;;;;5091716;28;20497;-49
2022/11/08 08:22:45;;;;;;;3.30;1.40;;;4.40;99.90;;;;;;5091503;28;20530;-51
2022/11/08 08:25:12;;;;;;;2.17;1.77;;;4.40;99.90;;;;;;5091320;28;20526;-49
2022/11/08 08:27:40;;;;;;;2.90;1.50;;;4.50;99.90;;;;;;5091415;28;20521;-50
2022/11/08 08:30:08;;;;;;;2.70;1.17;;;4.60;99.90;;;;;;5091031;28;20537;-49
2022/11/08 08:32:34;;;;;;;3.33;1.90;;;4.70;99.90;;;;;;5091281;28;20440;-49
2022/11/08 08:35:01;;;;;;;2.63;1.80;;;4.20;99.90;;;;;;5091155;28;20558;-47
2022/11/08 08:37:28;;;;;;;3.57;2.13;;;3.90;99.90;;;;;;5091549;28;20805;-49
2022/11/08 08:39:57;;;;;;;2.50;1.50;;;4.10;99.90;;;;;;5091254;28;20440;-48
2022/11/08 08:42:24;;;;;;;2.37;1.47;;;4.40;99.90;;;;;;5091196;28;20479;-49
2022/11/08 08:44:50;;;;;;;2.17;1.50;;;4.50;99.90;;;;;;5091124;28;20477;-49
2022/11/08 08:47:17;;;;;;;1.30;1.20;;;4.50;99.90;;;;;;5090876;28;20948;-48
2022/11/08 08:49:44;;;;;;;9.43;2.87;;;4.60;99.90;;;;;;5091044;28;20567;-48
2022/11/08 08:52:11;;;;;;;7.40;4.40;;;4.70;99.90;;;;;;5091339;28;20518;-48
2022/11/08 08:54:38;;;;;;;6.67;4.20;;;4.50;99.90;;;;;;5091017;28;20555;-48
2022/11/08 08:57:06;;;;;;;5.60;4.30;;;4.20;99.90;;;;;;5091496;28;20867;-48
2022/11/08 08:59:33;;;;;;;2.50;2.20;;;4.40;99.90;;;;;;5091224;28;20472;-48
2022/11/08 09:02:00;;;;;;;2.80;2.00;;;4.60;99.90;;;;;;5091030;28;21048;-48
2022/11/08 09:04:27;;;;;;;2.33;1.50;;;4.70;99.90;;;;;;5091055;28;20467;-48
2022/11/08 09:06:54;;;;;;;1.93;1.10;;;4.80;99.90;;;;;;5091124;28;20483;-48
2022/11/08 09:09:22;;;;;;;1.70;1.43;;;4.90;99.90;;;;;;5091020;28;20495;-48
2022/11/08 09:11:48;;;;;;;3.30;1.10;;;5.00;99.90;;;;;;5090858;28;20931;-48
2022/11/08 09:14:17;;;;;;;1.27;0.90;;;5.10;99.90;;;;;;5090769;28;20508;-48
2022/11/08 09:16:44;;;;;;;1.00;0.80;;;5.10;99.90;;;;;;5091084;28;20445;-48
2022/11/08 09:19:11;;;;;;;1.40;1.20;;;5.20;99.90;;;;;;5091029;28;20432;-51
2022/11/08 09:21:37;;;;;;;2.37;1.90;;;5.30;99.90;;;;;;5090899;28;20442;-48
2022/11/08 09:24:05;;;;;;;2.80;1.37;;;5.30;99.90;;;;;;5090670;28;20537;-48
2022/11/08 09:26:31;;;;;;;4.23;2.10;;;5.30;99.90;;;;;;5091144;28;20475;-48
2022/11/08 09:29:00;;;;;;;2.77;2.17;;;5.30;99.90;;;;;;5090937;28;20472;-48
2022/11/08 09:31:28;;;;;;;5.60;2.97;;;5.40;99.90;;;;;;5090491;28;20472;-48
2022/11/08 09:33:55;;;;;;;3.60;2.63;;;5.50;99.90;;;;;;5090628;28;20484;-48
2022/11/08 09:36:22;;;;;;;2.63;2.07;;;5.60;99.90;;;;;;5090975;28;20527;-48
2022/11/08 09:38:49;;;;;;;1.80;1.30;;;5.80;99.90;;;;;;5091070;28;20472;-48
2022/11/08 09:41:41;;;;;;;2.30;1.73;;;5.90;99.90;;;;;;5090808;28;20476;-48
2022/11/08 09:44:20;;;;;;;5.17;4.70;;;5.90;99.90;;;;;;5090287;28;20452;-49
2022/11/08 09:46:52;;;;;;;3.53;2.50;;;6.10;99.90;;;;;;5091036;28;20535;-48
2022/11/08 09:49:23;;;;;;;3.83;1.40;;;6.20;99.90;;;;;;5090885;28;20611;-48
2022/11/08 09:51:51;;;;;;;4.33;1.87;;;6.30;99.90;;;;;;5090972;28;20571;-48
2022/11/08 09:54:22;;;;;;;2.80;1.30;;;6.40;99.90;;;;;;5090424;28;20514;-48
2022/11/08 09:56:51;;;;;;;127.63;36.03;;;6.50;99.90;;;;;;5090593;28;21076;-48
2022/11/08 09:59:30;;;;;;;23.43;7.43;;;6.80;99.90;;;;;;5093695;28;20477;-48
2022/11/08 10:01:58;;;;;;;7.13;3.50;;;6.80;99.90;;;;;;5094534;28;20523;-48
2022/11/08 10:04:29;;;;;;;4.03;3.23;;;7.00;99.90;;;;;;5094311;28;20459;-48
2022/11/08 10:07:11;;;;;;;3.20;2.90;;;7.00;99.90;;;;;;5094627;28;20528;-49
2022/11/08 10:09:59;;;;;;;7.33;3.30;;;7.10;99.90;;;;;;5094391;28;20581;-49
2022/11/08 10:12:34;;;;;;;39.70;12.77;;;7.10;99.90;;;;;;5094294;28;20840;-48
2022/11/08 10:15:14;;;;;;;5.40;3.83;;;7.40;99.90;;;;;;5093554;28;20516;-48
2022/11/08 10:18:07;;;;;;;274.33;84.33;;;7.40;99.90;;;;;;5094037;28;20449;-48
2022/11/08 10:20:45;;;;;;;37.73;15.37;;;7.80;99.90;;;;;;5094189;28;20941;-50
2022/11/08 10:23:21;;;;;;;276.23;113.43;;;7.70;99.90;;;;;;5093835;28;20526;-47
2022/11/08 10:25:52;;;;;;;20.07;9.03;;;8.00;99.90;;;;;;5093640;28;20501;-48
2022/11/08 10:28:23;;;;;;;6.50;3.80;;;7.90;99.90;;;;;;5093611;28;20778;-49
2022/11/08 10:30:52;;;;;;;3.67;2.90;;;8.00;99.90;;;;;;5093398;28;20523;-48
2022/11/08 10:33:25;;;;;;;2.00;1.63;;;8.00;99.90;;;;;;5093246;28;20948;-48
2022/11/08 10:35:57;;;;;;;3.00;1.63;;;8.00;99.90;;;;;;5093427;28;21011;-50
2022/11/08 10:38:29;;;;;;;5.50;2.80;;;8.10;99.90;;;;;;5093593;28;20439;-49
2022/11/08 10:41:03;;;;;;;3.00;2.27;;;8.10;99.90;;;;;;5093843;28;20929;-47
2022/11/08 10:43:34;;;;;;;1999.90;822.67;;;8.20;99.90;;;;;;5093529;28;20447;-48
2022/11/08 10:46:00;;;;;;;61.60;33.57;;;8.40;99.90;;;;;;5093330;28;20470;-47
2022/11/08 10:48:32;;;;;;;4.50;4.10;;;8.60;99.90;;;;;;5093448;28;20446;-47
2022/11/08 10:50:59;;;;;;;3.30;2.70;;;8.50;99.90;;;;;;5093793;28;20526;-47
2022/11/08 10:53:29;;;;;;;4.13;2.20;;;8.50;99.90;;;;;;5093267;28;20515;-47
2022/11/08 10:56:00;;;;;;;13.53;3.73;;;8.40;99.90;;;;;;5093321;28;20470;-47
2022/11/08 10:58:35;;;;;;;207.87;62.07;;;8.60;99.90;;;;;;5093366;28;20435;-49
2022/11/08 11:01:06;;;;;;;5.90;3.50;;;8.70;99.90;;;;;;5093241;28;20999;-47
2022/11/08 11:03:34;;;;;;;2.87;2.23;;;8.70;99.90;;;;;;5093205;28;20861;-47
2022/11/08 11:06:03;;;;;;;3.57;2.40;;;8.70;99.90;;;;;;5093231;28;20543;-49
2022/11/08 11:08:31;;;;;;;1.90;1.63;;;8.70;99.90;;;;;;5092916;28;20442;-47
2022/11/08 11:11:21;;;;;;;2.37;1.47;;;8.80;99.90;;;;;;5093454;28;20538;-48
2022/11/08 11:14:07;;;;;;;8.60;1.70;;;8.90;99.90;;;;;;5092952;28;20472;-49
2022/11/08 11:16:34;;;;;;;2.13;1.67;;;9.00;99.90;;;;;;5093046;28;20440;-47
2022/11/08 11:19:05;;;;;;;2.03;1.73;;;9.00;99.90;;;;;;5092547;28;20522;-47
2022/11/08 11:21:37;;;;;;;1.70;1.60;;;9.00;99.90;;;;;;5092667;28;20531;-49
2022/11/08 11:24:09;;;;;;;3.27;1.83;;;9.20;99.90;;;;;;5092714;28;20876;-47
2022/11/08 11:26:41;;;;;;;2.50;2.23;;;9.30;99.90;;;;;;5092908;28;21157;-47
2022/11/08 11:29:21;;;;;;;3.10;2.80;;;9.50;99.90;;;;;;5092221;28;20563;-47
2022/11/08 11:31:51;;;;;;;3.50;3.20;;;9.30;99.90;;;;;;5091811;28;20995;-47
2022/11/08 11:34:32;;;;;;;2.90;2.03;;;9.40;99.90;;;;;;5092293;28;20500;-47
2022/11/08 11:37:04;;;;;;;3.10;2.30;;;9.50;99.90;;;;;;5092245;28;20526;-48
2022/11/08 11:39:37;;;;;;;3.90;2.30;;;9.40;99.90;;;;;;5091732;28;20479;-49
2022/11/08 11:42:09;;;;;;;2.43;2.20;;;9.60;99.90;;;;;;5092696;28;20447;-48
2022/11/08 11:44:46;;;;;;;2.83;2.40;;;9.70;99.90;;;;;;5092224;28;20467;-47
2022/11/08 11:47:19;;;;;;;3.10;2.60;;;9.70;99.90;;;;;;5092387;28;20535;-47
2022/11/08 11:49:50;;;;;;;2.70;2.27;;;9.60;99.90;;;;;;5092251;28;20471;-47
2022/11/08 11:52:19;;;;;;;2.53;2.30;;;9.80;99.90;;;;;;5092541;28;20868;-47
2022/11/08 11:54:49;;;;;;;3.80;2.20;;;9.90;99.90;;;;;;5091932;28;20503;-51
2022/11/08 11:57:27;;;;;;;2.50;1.77;;;9.90;99.90;;;;;;5091800;28;20523;-48
2022/11/08 12:00:04;;;;;;;4.83;2.40;;;9.90;99.90;;;;;;5091717;28;20428;-47
2022/11/08 12:02:53;;;;;;;10.03;3.00;;;9.90;99.90;;;;;;5092754;28;20431;-47
2022/11/08 12:05:42;;;;;;;6.30;2.83;;;9.90;99.90;;;;;;5091883;28;20878;-48
2022/11/08 12:08:21;;;;;;;3.70;2.20;;;9.90;99.90;;;;;;5091678;28;20440;-47
2022/11/08 12:10:59;;;;;;;2.73;2.07;;;10.10;99.90;;;;;;5091711;28;20501;-50
2022/11/08 12:13:42;;;;;;;3.80;2.27;;;10.10;99.90;;;;;;5091725;28;20458;-47
2022/11/08 12:16:16;;;;;;;4.43;2.10;;;10.10;99.90;;;;;;5093110;28;20479;-47
2022/11/08 12:18:56;;;;;;;2.60;2.00;;;10.00;99.90;;;;;;5091888;28;20928;-50
2022/11/08 12:21:33;;;;;;;5.57;3.00;;;10.10;99.90;;;;;;5091485;28;20437;-47
2022/11/08 12:24:15;;;;;;;2.20;1.90;;;10.10;99.90;;;;;;5091630;28;20534;-47
2022/11/08 12:26:52;;;;;;;4.20;3.37;;;10.20;99.90;;;;;;5091577;28;20932;-48
2022/11/08 12:29:24;;;;;;;3.40;2.37;;;10.20;99.90;;;;;;5091064;28;20480;-47
2022/11/08 12:32:09;;;;;;;6.77;2.73;;;10.30;99.90;;;;;;5091043;28;20440;-47
2022/11/08 12:34:44;;;;;;;4.17;2.87;;;10.10;99.90;;;;;;5091122;28;20932;-46
2022/11/08 12:37:26;;;;;;;6.90;2.57;;;10.10;99.90;;;;;;5091629;28;20876;-47
2022/11/08 12:39:59;;;;;;;11.10;3.40;;;10.10;99.90;;;;;;5091632;28;20440;-47
2022/11/08 12:43:00;;;;;;;10.33;3.20;;;10.30;99.90;;;;;;5091321;28;20444;-47
2022/11/08 12:45:49;;;;;;;2.93;1.90;;;10.30;99.90;;;;;;5091478;28;20561;-49
2022/11/08 12:48:25;;;;;;;4.07;2.37;;;10.20;99.90;;;;;;5091508;28;20474;-49
2022/11/08 12:51:02;;;;;;;11.13;4.33;;;10.30;99.90;;;;;;5091112;28;20475;-48
2022/11/08 12:53:59;;;;;;;10.30;3.50;;;10.40;99.90;;;;;;5091192;28;20487;-47
2022/11/08 12:56:34;;;;;;;8.70;3.27;;;10.40;99.90;;;;;;5085943;28;20454;-50
2022/11/08 12:59:02;;;;;;;12.63;4.40;;;10.60;99.90;;;;;;5091188;28;20530;-49
2022/11/08 13:01:29;;;;;;;5.50;2.50;;;10.70;99.90;;;;;;5091602;28;20444;-47
2022/11/08 13:04:20;;;;;;;10.20;2.80;;;10.70;99.90;;;;;;5090968;28;20436;-47
2022/11/08 13:06:56;;;;;;;3.27;1.97;;;10.70;99.90;;;;;;5091087;28;20871;-47
2022/11/08 13:09:34;;;;;;;3.23;2.10;;;10.70;99.90;;;;;;5091096;28;20570;-48
2022/11/08 13:12:06;;;;;;;4.03;2.13;;;10.70;99.90;;;;;;5091481;28;20437;-48
2022/11/08 13:14:34;;;;;;;9.63;2.50;;;10.80;99.90;;;;;;5091081;28;20901;-47
2022/11/08 13:17:24;;;;;;;4.43;2.00;;;10.90;99.90;;;;;;5091518;28;20531;-47
2022/11/08 13:19:59;;;;;;;19.17;4.67;;;10.80;99.90;;;;;;5087300;28;20499;-49
2022/11/08 13:22:43;;;;;;;22.47;5.20;;;10.80;99.90;;;;;;5090943;28;20447;-47
2022/11/08 13:25:39;;;;;;;12.73;3.50;;;10.80;99.90;;;;;;5090808;28;20513;-47
2022/11/08 13:28:37;;;;;;;10.50;3.97;;;10.90;99.90;;;;;;5088383;28;20478;-48
2022/11/08 13:31:16;;;;;;;3.50;3.20;;;11.00;99.90;;;;;;5090895;28;20562;-47
2022/11/08 13:33:57;;;;;;;12.20;4.70;;;10.90;99.90;;;;;;5092928;28;20514;-48